createdAt,value
2019-02-08T00:03:38.337Z,2.58
2019-02-08T00:08:46.229Z,2.84
2019-02-08T00:13:53.955Z,2.59
2019-02-08T00:19:01.573Z,2.85
2019-02-08T00:24:09.318Z,2.52
2019-02-08T00:29:16.946Z,2.95
2019-02-08T00:34:24.831Z,2.57
2019-02-08T00:39:32.438Z,2.63
2019-02-08T00:44:40.052Z,2.72
2019-02-08T00:49:47.667Z,3.03
2019-02-08T00:54:55.283Z,4.39
2019-02-08T01:00:02.925Z,2.87
2019-02-08T01:05:10.566Z,2.81
2019-02-08T01:10:18.273Z,3.03
2019-02-08T01:15:25.934Z,3.15
2019-02-08T01:20:33.601Z,3.62
2019-02-08T01:25:41.187Z,3.30
2019-02-08T01:30:48.922Z,3.49
2019-02-08T01:35:56.721Z,3.53
2019-02-08T01:41:04.517Z,4.07
2019-02-08T01:46:12.237Z,4.54
2019-02-08T01:51:19.829Z,4.04
2019-02-08T01:56:27.575Z,4.70
2019-02-08T02:01:35.234Z,5.05
2019-02-08T02:06:42.985Z,5.68
2019-02-08T02:11:50.620Z,5.40
2019-02-08T02:16:58.206Z,5.64
2019-02-08T02:22:05.922Z,5.71
2019-02-08T02:27:13.598Z,5.79
2019-02-08T02:32:21.227Z,5.89
2019-02-08T02:37:29.103Z,6.74
2019-02-08T02:42:36.930Z,6.63
2019-02-08T02:47:44.538Z,6.63
2019-02-08T02:52:52.173Z,6.20
2019-02-08T02:57:59.748Z,9.55
2019-02-08T03:03:07.926Z,6.44
2019-02-08T03:08:15.870Z,6.07
2019-02-08T03:13:23.836Z,5.98
2019-02-08T03:18:31.505Z,6.09
2019-02-08T03:23:39.154Z,6.46
2019-02-08T03:28:46.902Z,5.96
2019-02-08T03:33:54.650Z,6.15
2019-02-08T03:39:02.482Z,6.58
2019-02-08T03:44:10.198Z,6.72
2019-02-08T03:49:18.057Z,6.76
2019-02-08T03:54:25.925Z,6.40
2019-02-08T03:59:34.234Z,6.54
2019-02-08T04:04:41.886Z,6.40
2019-02-08T04:09:49.501Z,6.33
2019-02-08T04:14:57.241Z,6.46
2019-02-08T04:20:04.969Z,6.23
2019-02-08T04:25:12.664Z,6.39
2019-02-08T04:30:20.384Z,6.03
2019-02-08T04:35:28.002Z,5.81
2019-02-08T04:40:35.714Z,5.59
2019-02-08T04:45:43.497Z,5.55
2019-02-08T04:50:51.113Z,5.43
2019-02-08T04:55:58.977Z,5.47
2019-02-08T05:01:07.494Z,7.87
2019-02-08T05:06:15.198Z,5.58
2019-02-08T05:11:23.750Z,4.91
2019-02-08T05:16:31.565Z,5.08
2019-02-08T05:21:39.341Z,7.01
2019-02-08T05:26:47.122Z,5.02
2019-02-08T05:31:55.893Z,4.82
2019-02-08T05:37:03.507Z,5.02
2019-02-08T05:42:11.276Z,4.85
2019-02-08T05:47:19.029Z,7.52
2019-02-08T05:52:26.813Z,4.67
2019-02-08T05:57:34.506Z,4.52
2019-02-08T06:02:42.295Z,4.72
2019-02-08T06:07:50.037Z,4.56
2019-02-08T06:12:57.849Z,4.82
2019-02-08T06:18:05.646Z,5.00
2019-02-08T06:23:13.430Z,4.95
2019-02-08T06:28:21.357Z,5.12
2019-02-08T06:33:29.064Z,4.83
2019-02-08T06:38:36.661Z,5.46
2019-02-08T06:43:44.485Z,5.28
2019-02-08T06:48:52.168Z,5.37
2019-02-08T06:53:59.862Z,5.13
2019-02-08T06:59:07.542Z,5.22
2019-02-08T07:04:15.305Z,5.50
2019-02-08T07:09:22.938Z,5.51
2019-02-08T07:14:30.786Z,4.93
2019-02-08T07:19:38.391Z,4.93
2019-02-08T07:24:46.134Z,4.62
2019-02-08T07:29:53.790Z,4.54
2019-02-08T07:35:01.593Z,4.46
2019-02-08T07:40:09.201Z,4.47
2019-02-08T07:45:16.841Z,4.40
2019-02-08T07:50:24.503Z,4.64
2019-02-08T07:55:32.340Z,4.85
2019-02-08T08:00:40.886Z,5.68
2019-02-08T08:05:48.577Z,5.40
2019-02-08T08:10:56.241Z,5.32
2019-02-08T08:16:04.829Z,5.72
2019-02-08T08:21:12.705Z,5.87
2019-02-08T08:26:20.426Z,5.98
2019-02-08T08:31:31.491Z,6.11
2019-02-08T08:36:29.091Z,6.39
2019-02-08T08:41:36.850Z,6.32
2019-02-08T08:46:44.479Z,6.39
2019-02-08T08:51:52.102Z,6.46
2019-02-08T08:56:59.925Z,9.49
2019-02-08T09:02:07.705Z,7.04
2019-02-08T09:07:16.661Z,7.05
2019-02-08T09:12:23.948Z,7.39
2019-02-08T09:17:31.651Z,7.18
2019-02-08T09:22:39.277Z,7.17
2019-02-08T09:27:47.074Z,7.34
2019-02-08T09:32:54.701Z,7.58
2019-02-08T09:38:02.425Z,7.73
2019-02-08T09:43:10.022Z,8.20
2019-02-08T09:48:31.021Z,8.43
2019-02-08T09:53:18.625Z,8.65
2019-02-08T09:58:26.491Z,8.29
2019-02-08T10:03:35.229Z,8.77
2019-02-08T10:08:43.109Z,8.64
2019-02-08T10:13:50.769Z,8.68
2019-02-08T10:18:58.508Z,8.44
2019-02-08T10:24:06.276Z,8.35
2019-02-08T10:29:13.890Z,8.36
2019-02-08T10:34:21.593Z,8.03
2019-02-08T10:39:29.265Z,8.36
2019-02-08T10:44:37.163Z,8.25
2019-02-08T10:49:44.884Z,8.97
2019-02-08T10:54:52.699Z,9.05
2019-02-08T11:00:00.286Z,9.09
2019-02-08T11:05:08.035Z,9.85
2019-02-08T11:10:15.773Z,10.02
2019-02-08T11:15:23.594Z,9.88
2019-02-08T11:20:31.274Z,9.66
2019-02-08T11:25:39.210Z,10.04
2019-02-08T11:30:46.954Z,8.99
2019-02-08T11:35:54.777Z,9.26
2019-02-08T11:41:02.394Z,8.25
2019-02-08T11:46:10.373Z,7.95
2019-02-08T11:51:18.205Z,8.24
2019-02-08T11:56:30.016Z,8.14
2019-02-08T12:01:33.454Z,11.84
2019-02-08T12:06:41.129Z,7.15
2019-02-08T12:11:48.788Z,7.54
2019-02-08T12:16:56.780Z,7.13
2019-02-08T12:22:04.614Z,6.98
2019-02-08T12:27:12.439Z,6.96
2019-02-08T12:32:20.043Z,6.86
2019-02-08T12:37:27.741Z,7.42
2019-02-08T12:42:35.354Z,7.66
2019-02-08T12:47:43.133Z,7.54
2019-02-08T12:52:50.739Z,7.49
2019-02-08T12:57:58.546Z,7.43
2019-02-08T13:03:06.206Z,6.64
2019-02-08T13:08:14.021Z,7.00
2019-02-08T13:13:21.693Z,6.94
2019-02-08T13:18:29.290Z,7.61
2019-02-08T13:23:36.920Z,7.54
2019-02-08T13:28:44.541Z,7.41
2019-02-08T13:33:52.234Z,7.70
2019-02-08T13:38:59.886Z,7.49
2019-02-08T13:44:07.746Z,7.05
2019-02-08T13:49:16.498Z,7.22
2019-02-08T13:54:24.226Z,7.20
2019-02-08T13:59:32.088Z,6.34
2019-02-08T14:04:39.825Z,6.16
2019-02-08T14:09:47.569Z,5.78
2019-02-08T14:14:56.666Z,5.55
2019-02-08T14:20:04.329Z,5.20
2019-02-08T14:25:12.110Z,5.47
2019-02-08T14:30:20.089Z,5.12
2019-02-08T14:35:27.835Z,5.30
2019-02-08T14:40:35.581Z,5.04
2019-02-08T14:45:43.356Z,5.17
2019-02-08T14:50:51.109Z,4.66
2019-02-08T14:55:58.825Z,4.59
2019-02-08T15:01:06.531Z,4.55
2019-02-08T15:06:14.158Z,4.61
2019-02-08T15:11:21.862Z,4.43
2019-02-08T15:16:29.474Z,4.30
2019-02-08T15:21:37.191Z,4.30
2019-02-08T15:26:45.097Z,4.26
2019-02-08T15:31:52.864Z,4.07
2019-02-08T15:37:00.746Z,4.31
2019-02-08T15:42:08.541Z,3.94
2019-02-08T15:47:16.233Z,3.89
2019-02-08T15:52:23.934Z,4.02
2019-02-08T15:57:32.461Z,3.77
2019-02-08T16:02:38.721Z,3.76
2019-02-08T16:07:46.357Z,3.98
2019-02-08T16:12:54.098Z,4.21
2019-02-08T16:18:01.813Z,4.24
2019-02-08T16:23:09.578Z,4.06
2019-02-08T16:28:17.341Z,3.89
2019-02-08T16:33:25.272Z,4.38
2019-02-08T16:38:32.957Z,3.82
2019-02-08T16:43:40.888Z,4.11
2019-02-08T16:48:48.511Z,3.93
2019-02-08T16:53:56.245Z,3.95
2019-02-08T16:59:17.257Z,3.87
2019-02-08T17:04:04.918Z,3.87
2019-02-08T17:09:16.026Z,3.71
2019-02-08T17:14:13.845Z,3.78
2019-02-08T17:19:21.739Z,3.33
2019-02-08T17:24:29.391Z,3.41
2019-02-08T17:29:38.387Z,3.60
2019-02-08T17:34:46.404Z,3.74
2019-02-08T17:39:55.879Z,3.80
2019-02-08T17:45:04.025Z,3.89
2019-02-08T17:50:11.633Z,3.94
2019-02-08T17:55:19.665Z,6.39
2019-02-08T18:00:27.430Z,4.38
2019-02-08T18:05:35.104Z,4.11
2019-02-08T18:10:42.795Z,6.45
2019-02-08T18:15:50.537Z,4.25
2019-02-08T18:21:01.357Z,4.37
2019-02-08T18:26:01.233Z,4.37
2019-02-08T18:31:08.975Z,4.44
2019-02-08T18:36:16.580Z,4.60
2019-02-08T18:41:25.094Z,4.45
2019-02-08T18:46:32.809Z,4.31
2019-02-08T18:51:40.717Z,4.47
2019-02-08T18:56:48.484Z,4.37
2019-02-08T19:01:56.378Z,3.95
2019-02-08T19:07:04.173Z,3.70
2019-02-08T19:12:12.766Z,3.45
2019-02-08T19:17:21.756Z,3.64
2019-02-08T19:22:29.345Z,3.41
2019-02-08T19:27:38.316Z,3.03
2019-02-08T19:32:46.072Z,3.33
2019-02-08T19:37:53.990Z,3.03
2019-02-08T19:43:01.849Z,3.39
2019-02-08T19:48:09.825Z,3.12
2019-02-08T19:53:17.541Z,3.30
2019-02-08T19:58:25.423Z,3.38
2019-02-08T20:03:34.428Z,3.50
2019-02-08T20:08:42.133Z,3.51
2019-02-08T20:13:50.762Z,3.54
2019-02-08T20:18:58.983Z,3.52
2019-02-08T20:24:07.122Z,3.62
2019-02-08T20:29:15.177Z,3.67
2019-02-08T20:34:23.790Z,3.55
2019-02-08T20:39:31.855Z,3.44
2019-02-08T20:44:39.529Z,3.43
2019-02-08T20:49:47.485Z,3.55
2019-02-08T20:54:55.649Z,3.34
2019-02-08T21:00:03.725Z,3.26
2019-02-08T21:05:11.318Z,3.35
2019-02-08T21:10:19.233Z,3.27
2019-02-08T21:15:27.208Z,3.10
2019-02-08T21:20:34.897Z,3.22
2019-02-08T21:25:42.629Z,3.18
2019-02-08T21:30:50.369Z,3.12
2019-02-08T21:35:58.155Z,4.78
2019-02-08T21:41:05.816Z,2.98
2019-02-08T21:46:13.467Z,2.95
2019-02-08T21:51:21.125Z,2.95
2019-02-08T21:56:28.841Z,2.90
2019-02-08T22:01:36.603Z,3.10
2019-02-08T22:06:44.561Z,3.56
2019-02-08T22:11:52.335Z,2.68
2019-02-08T22:16:59.947Z,2.85
2019-02-08T22:22:07.681Z,2.90
2019-02-08T22:27:15.420Z,3.17
2019-02-08T22:32:23.038Z,3.43
2019-02-08T22:37:30.873Z,3.69
2019-02-08T22:42:38.599Z,3.74
2019-02-08T22:47:46.202Z,3.73
2019-02-08T22:52:53.818Z,4.20
2019-02-08T22:58:01.737Z,3.82
2019-02-08T23:03:09.592Z,3.65
2019-02-08T23:08:17.441Z,3.63
2019-02-08T23:13:25.407Z,3.50
2019-02-08T23:18:33.089Z,3.45
2019-02-08T23:23:40.843Z,3.33
2019-02-08T23:28:48.647Z,3.33
2019-02-08T23:33:56.281Z,3.21
2019-02-08T23:39:04.056Z,3.30
2019-02-08T23:44:11.798Z,3.01
2019-02-08T23:49:19.501Z,3.15
2019-02-08T23:54:27.286Z,3.08
2019-02-08T23:59:38.065Z,3.00
